DLH652 EDDF-UAAA
Flight info
| Callsign | DLH652 |
|---|---|
| Flight time | N/A |
| Altitude | 31000 |
| Route | SULUS Z650 VEMUT/N0477F370 DCT PEPIK DCT ERGOM DCT TEGRI/N0465F390 DCT EKSUN DCT RIVOS DCT DINRO N743 UDROS UM859 KARDE UN644 ROLIN DCT LAGAS M747 LUSAL N199 RASAM L88 METKA B476 UGLEP/N0472F410 B476 TIMGA A480 OTBOR/K0874F410 N147 PIDWO Y720 LAPZE Z640 GILAT N102 SMK N143 TAR Z817 AGLEK Z370 EKLAT |
| Aircraft | A343/H-SDE2E3FGHIJ4J5M1RWXY/LB1D1 |
Departure
| Time | 2026-05-07 21:36 |
|---|---|
| Airport | Frankfurt Main Airport (EDDF) |
Arrival
| Time | N/A |
|---|---|
| Airport | Almaty International Airport (UAAA) |
| Time | Latitude | Longitude | Altitude | Speed | Heading |
|---|---|---|---|---|---|
| 2026-05-07 21:07 | 50.04653 | 8.57056 | 360 ft | 0 kts | 91° |
| 2026-05-07 21:24 | 50.04653 | 8.57045 | 366 ft | 4 kts | 91° |
| 2026-05-07 21:25 | 50.04653 | 8.57003 | 359 ft | 3 kts | 91° |
| 2026-05-07 21:25 | 50.04655 | 8.56970 | 362 ft | 4 kts | 117° |
| 2026-05-07 21:25 | 50.04670 | 8.56950 | 368 ft | 4 kts | 188° |
| 2026-05-07 21:25 | 50.04679 | 8.56952 | 366 ft | 4 kts | 204° |
| 2026-05-07 21:26 | 50.04657 | 8.56937 | 366 ft | 1 kts | 204° |
| 2026-05-07 21:26 | 50.04657 | 8.56936 | 366 ft | 0 kts | 204° |
| 2026-05-07 21:30 | 50.04638 | 8.56924 | 366 ft | 6 kts | 202° |
| 2026-05-07 21:30 | 50.04574 | 8.56899 | 367 ft | 11 kts | 193° |
| 2026-05-07 21:30 | 50.04505 | 8.56874 | 365 ft | 10 kts | 193° |
| 2026-05-07 21:30 | 50.04431 | 8.56850 | 370 ft | 12 kts | 189° |
| 2026-05-07 21:31 | 50.04346 | 8.56828 | 365 ft | 12 kts | 191° |
| 2026-05-07 21:31 | 50.04324 | 8.56821 | 363 ft | 2 kts | 191° |
| 2026-05-07 21:31 | 50.04266 | 8.56791 | 371 ft | 13 kts | 213° |
| 2026-05-07 21:31 | 50.04214 | 8.56644 | 365 ft | 19 kts | 249° |
| 2026-05-07 21:32 | 50.04161 | 8.56419 | 365 ft | 26 kts | 250° |
| 2026-05-07 21:32 | 50.04092 | 8.56130 | 362 ft | 26 kts | 249° |
| 2026-05-07 21:32 | 50.04050 | 8.55957 | 361 ft | 18 kts | 249° |
| 2026-05-07 21:32 | 50.03996 | 8.55731 | 358 ft | 25 kts | 249° |
| 2026-05-07 21:33 | 50.03937 | 8.55481 | 361 ft | 24 kts | 250° |
| 2026-05-07 21:33 | 50.03875 | 8.55225 | 362 ft | 26 kts | 249° |
| 2026-05-07 21:33 | 50.03808 | 8.54943 | 361 ft | 29 kts | 250° |
| 2026-05-07 21:33 | 50.03736 | 8.54644 | 358 ft | 29 kts | 250° |
| 2026-05-07 21:34 | 50.03684 | 8.54422 | 354 ft | 6 kts | 250° |
| 2026-05-07 21:34 | 50.03661 | 8.54343 | 353 ft | 11 kts | 234° |
| 2026-05-07 21:34 | 50.03579 | 8.54328 | 353 ft | 15 kts | 166° |
| 2026-05-07 21:34 | 50.03497 | 8.54419 | 355 ft | 3 kts | 102° |
| 2026-05-07 21:35 | 50.03502 | 8.54459 | 355 ft | 8 kts | 77° |
| 2026-05-07 21:35 | 50.03543 | 8.54642 | 358 ft | 34 kts | 70° |
| 2026-05-07 21:35 | 50.03694 | 8.55272 | 353 ft | 90 kts | 70° |
| 2026-05-07 21:35 | 50.03970 | 8.56421 | 364 ft | 136 kts | 70° |
| 2026-05-07 21:36 | 50.04330 | 8.57955 | 602 ft | 154 kts | 68° |
| 2026-05-07 21:36 | 50.04695 | 8.59500 | 1096 ft | 159 kts | 69° |
| 2026-05-07 21:36 | 50.05082 | 8.61183 | 1517 ft | 173 kts | 70° |
| 2026-05-07 21:36 | 50.05509 | 8.63103 | 1857 ft | 196 kts | 71° |
| 2026-05-07 21:37 | 50.05970 | 8.65184 | 2369 ft | 211 kts | 71° |
| 2026-05-07 21:37 | 50.06452 | 8.67352 | 3098 ft | 217 kts | 70° |
| 2026-05-07 21:37 | 50.06950 | 8.69630 | 3897 ft | 223 kts | 73° |
| 2026-05-07 21:37 | 50.07156 | 8.72064 | 4544 ft | 237 kts | 92° |
| 2026-05-07 21:38 | 50.06938 | 8.74729 | 5012 ft | 257 kts | 99° |
| 2026-05-07 21:38 | 50.06599 | 8.77516 | 5724 ft | 266 kts | 100° |
| 2026-05-07 21:38 | 50.06249 | 8.80373 | 6513 ft | 272 kts | 101° |
| 2026-05-07 21:38 | 50.05907 | 8.83300 | 7278 ft | 277 kts | 98° |
| 2026-05-07 21:39 | 50.05792 | 8.86309 | 8097 ft | 280 kts | 89° |
| 2026-05-07 21:39 | 50.05828 | 8.89346 | 8911 ft | 283 kts | 88° |
| 2026-05-07 21:39 | 50.05886 | 8.92430 | 9706 ft | 287 kts | 88° |